Time;durP1;ratioP1;P1;durP2;ratioP2;P2;SDS_P1;SDS_P2;PMS_P1;PMS_P2;Temp;Humidity;BMP_temperature;BMP_pressure;BME280_temperature;BME280_humidity;BME280_pressure;Samples;Min_cycle;Max_cycle;Signal;HPM_P1;HPM_P2
2023/09/14 00:00:15;;;;;;;14.55;10.32;;;19.90;63.10;;;;;;4993189;28;20022;-55
2023/09/14 00:02:41;;;;;;;11.38;9.15;;;19.90;63.10;;;;;;5011102;28;20030;-56
2023/09/14 00:05:07;;;;;;;13.43;9.45;;;19.80;63.10;;;;;;5011407;28;20553;-54
2023/09/14 00:07:33;;;;;;;13.93;9.35;;;19.80;63.20;;;;;;5010939;28;20342;-56
2023/09/14 00:09:59;;;;;;;12.90;9.57;;;19.80;63.30;;;;;;5011164;28;20022;-54
2023/09/14 00:12:24;;;;;;;13.52;8.88;;;19.70;63.30;;;;;;5011088;28;20026;-54
2023/09/14 00:14:50;;;;;;;12.02;8.00;;;19.70;63.30;;;;;;5005709;28;20045;-56
2023/09/14 00:17:16;;;;;;;12.55;9.55;;;19.70;63.30;;;;;;4991643;28;20411;-54
2023/09/14 00:19:42;;;;;;;12.75;9.07;;;19.60;63.20;;;;;;4991542;28;20022;-56
2023/09/14 00:22:08;;;;;;;11.98;9.95;;;19.60;63.30;;;;;;4992040;28;20022;-55
2023/09/14 00:24:35;;;;;;;14.60;11.38;;;19.50;63.30;;;;;;4995109;28;20025;-56
2023/09/14 00:27:00;;;;;;;17.15;12.40;;;19.50;63.30;;;;;;5010934;28;20029;-56
2023/09/14 00:29:26;;;;;;;17.10;12.57;;;19.50;63.40;;;;;;5009235;28;20474;-56
2023/09/14 00:31:52;;;;;;;13.93;11.70;;;19.50;63.50;;;;;;4991521;28;20034;-56
2023/09/14 00:34:17;;;;;;;14.52;11.68;;;19.40;63.40;;;;;;4991787;28;20034;-56
2023/09/14 00:36:43;;;;;;;13.68;10.52;;;19.40;63.50;;;;;;5011144;28;20053;-56
2023/09/14 00:39:10;;;;;;;13.43;10.93;;;19.40;63.40;;;;;;5011070;28;20025;-56
2023/09/14 00:41:35;;;;;;;14.27;10.55;;;19.40;63.30;;;;;;5011113;28;20468;-56
2023/09/14 00:44:01;;;;;;;13.85;10.20;;;19.40;63.30;;;;;;5011067;28;20108;-55
2023/09/14 00:46:28;;;;;;;11.88;10.35;;;19.40;63.40;;;;;;4993515;28;20114;-55
2023/09/14 00:48:54;;;;;;;13.23;9.48;;;19.40;63.40;;;;;;4991713;28;20026;-56
2023/09/14 00:51:20;;;;;;;12.60;9.60;;;19.40;63.40;;;;;;4991207;28;20034;-54
2023/09/14 00:53:47;;;;;;;12.38;9.10;;;19.40;63.30;;;;;;4991719;28;20466;-56
2023/09/14 00:56:13;;;;;;;11.32;9.02;;;19.40;63.20;;;;;;5009327;28;20077;-55
2023/09/14 00:58:39;;;;;;;11.45;8.80;;;19.40;63.20;;;;;;5010877;28;20053;-54
2023/09/14 01:01:04;;;;;;;12.63;7.82;;;19.40;63.20;;;;;;5010940;28;20414;-56
2023/09/14 01:03:30;;;;;;;15.68;8.85;;;19.40;63.10;;;;;;5010739;28;20466;-55
2023/09/14 01:05:58;;;;;;;13.35;8.02;;;19.40;63.00;;;;;;4998735;28;20390;-56
2023/09/14 01:08:24;;;;;;;11.93;8.35;;;19.40;63.00;;;;;;4991362;28;20038;-55
2023/09/14 01:10:49;;;;;;;11.73;8.32;;;19.40;62.80;;;;;;4990917;28;20026;-55
2023/09/14 01:13:29;;;;;;;13.40;8.38;;;19.40;63.00;;;;;;4991060;28;20046;-54
2023/09/14 01:16:05;;;;;;;13.75;8.65;;;19.40;63.00;;;;;;5002917;28;20425;-56
2023/09/14 01:18:40;;;;;;;12.23;7.70;;;19.40;63.00;;;;;;5013266;28;20545;-56
2023/09/14 01:21:49;;;;;;;13.30;7.88;;;19.40;63.00;;;;;;5013968;28;20371;-56
2023/09/14 01:24:37;;;;;;;14.55;8.52;;;19.40;62.90;;;;;;4934058;29;20040;-55
2023/09/14 01:27:03;;;;;;;10.95;8.20;;;19.30;63.00;;;;;;4934590;29;20445;-56
2023/09/14 01:29:29;;;;;;;13.57;7.70;;;19.30;63.40;;;;;;4973708;28;20042;-56
2023/09/14 01:31:55;;;;;;;11.60;8.00;;;19.30;63.20;;;;;;4994331;28;20030;-52
2023/09/14 01:34:21;;;;;;;16.90;8.90;;;19.30;63.10;;;;;;5009513;28;20410;-56
2023/09/14 01:36:56;;;;;;;12.60;8.95;;;19.30;63.20;;;;;;5011922;28;20033;-56
2023/09/14 01:39:24;;;;;;;15.65;9.93;;;19.30;63.30;;;;;;5014130;28;20227;-55
2023/09/14 01:41:54;;;;;;;13.18;10.23;;;19.30;63.30;;;;;;4996074;28;20092;-56
2023/09/14 01:44:22;;;;;;;19.55;11.52;;;19.30;63.30;;;;;;4994663;28;20067;-56
2023/09/14 01:46:48;;;;;;;14.13;11.45;;;19.30;63.30;;;;;;5011661;28;20030;-56
2023/09/14 01:49:13;;;;;;;16.35;11.38;;;19.30;63.40;;;;;;5013815;28;20048;-55
2023/09/14 01:51:39;;;;;;;14.82;11.30;;;19.30;63.40;;;;;;4998428;28;20109;-56
2023/09/14 01:54:05;;;;;;;13.95;11.15;;;19.30;63.50;;;;;;4995517;28;20030;-56
2023/09/14 01:56:31;;;;;;;13.25;10.40;;;19.30;63.50;;;;;;5013300;28;20071;-56
2023/09/14 01:58:56;;;;;;;13.00;9.10;;;19.30;63.40;;;;;;5013706;28;20033;-55
2023/09/14 02:01:22;;;;;;;14.07;9.07;;;19.30;63.40;;;;;;5013251;28;20041;-54
2023/09/14 02:03:47;;;;;;;11.52;8.50;;;19.30;63.30;;;;;;5001833;28;20057;-57
2023/09/14 02:06:13;;;;;;;14.02;9.07;;;19.30;63.20;;;;;;4993988;28;20041;-55
2023/09/14 02:08:39;;;;;;;10.88;8.38;;;19.30;63.30;;;;;;4993971;28;20034;-57
2023/09/14 02:11:04;;;;;;;12.18;8.77;;;19.20;63.40;;;;;;5003687;28;20121;-57
2023/09/14 02:13:30;;;;;;;12.63;8.60;;;19.20;63.40;;;;;;5013320;28;20035;-54
2023/09/14 02:15:56;;;;;;;10.85;9.40;;;19.20;63.40;;;;;;5005243;28;20497;-56
2023/09/14 02:18:21;;;;;;;13.80;8.70;;;19.20;63.50;;;;;;4993583;28;20530;-55
2023/09/14 02:20:47;;;;;;;10.57;8.55;;;19.20;63.60;;;;;;4993767;28;20101;-56
2023/09/14 02:23:15;;;;;;;13.75;8.57;;;19.20;63.80;;;;;;4993423;28;20037;-56
2023/09/14 02:25:45;;;;;;;17.25;9.35;;;19.20;63.80;;;;;;4999512;28;20022;-56
2023/09/14 02:28:10;;;;;;;14.07;9.15;;;19.20;64.00;;;;;;5013062;28;20054;-56
2023/09/14 02:30:40;;;;;;;14.13;8.40;;;19.20;64.50;;;;;;5007639;28;20072;-54
2023/09/14 02:33:08;;;;;;;13.05;8.73;;;19.20;64.00;;;;;;4993687;28;20041;-56
2023/09/14 02:35:39;;;;;;;13.25;8.48;;;19.20;64.00;;;;;;4997989;28;20374;-56
2023/09/14 02:38:05;;;;;;;;;;;19.20;64.10;;;;;;5013222;28;20025;-53
2023/09/14 02:40:33;;;;;;;11.63;8.80;;;19.20;64.20;;;;;;5012765;28;20427;-55
2023/09/14 02:42:58;;;;;;;10.68;8.63;;;19.20;64.30;;;;;;5012819;28;20084;-55
2023/09/14 02:45:24;;;;;;;12.40;8.88;;;19.20;64.40;;;;;;5010162;28;20482;-55
2023/09/14 02:47:50;;;;;;;10.52;8.70;;;19.20;64.30;;;;;;4993152;28;20046;-53
2023/09/14 02:50:16;;;;;;;15.55;9.60;;;19.20;65.00;;;;;;4993397;28;20478;-55
2023/09/14 02:52:42;;;;;;;12.13;9.68;;;19.20;64.50;;;;;;4992910;28;20029;-56
2023/09/14 02:55:08;;;;;;;10.45;8.55;;;19.20;64.60;;;;;;5002536;28;20057;-55
2023/09/14 02:57:33;;;;;;;14.00;8.90;;;19.20;64.70;;;;;;4992937;28;20063;-56
2023/09/14 02:59:59;;;;;;;9.80;7.97;;;19.20;64.90;;;;;;4993556;28;20062;-56
2023/09/14 03:02:25;;;;;;;14.45;8.05;;;19.20;65.00;;;;;;5010724;28;20259;-54
2023/09/14 03:04:50;;;;;;;12.50;7.88;;;19.20;65.10;;;;;;5012314;28;20115;-56
2023/09/14 03:07:16;;;;;;;14.52;8.35;;;19.20;65.30;;;;;;4996047;28;20038;-54
2023/09/14 03:09:42;;;;;;;12.43;8.38;;;19.20;65.20;;;;;;4992999;28;20069;-54
2023/09/14 03:12:08;;;;;;;11.45;8.70;;;19.20;65.20;;;;;;4992610;28;20030;-55
2023/09/14 03:14:34;;;;;;;10.85;8.30;;;19.20;65.40;;;;;;4992716;28;20378;-54
2023/09/14 03:17:00;;;;;;;11.80;8.25;;;19.20;65.50;;;;;;5006300;28;20034;-55
2023/09/14 03:19:26;;;;;;;12.00;8.43;;;19.30;65.60;;;;;;5012145;28;20076;-54
2023/09/14 03:21:52;;;;;;;13.57;8.80;;;19.20;65.50;;;;;;5011871;28;20083;-53
2023/09/14 03:24:17;;;;;;;13.35;8.25;;;19.20;65.60;;;;;;5012128;28;20034;-55
2023/09/14 03:26:43;;;;;;;14.30;8.55;;;19.20;65.50;;;;;;5011767;28;20048;-55
2023/09/14 03:29:09;;;;;;;12.90;8.05;;;19.20;65.60;;;;;;5012042;28;20042;-55
2023/09/14 03:31:35;;;;;;;12.75;8.65;;;19.20;65.70;;;;;;5001984;28;20034;-55
2023/09/14 03:34:01;;;;;;;15.45;9.18;;;19.20;65.70;;;;;;4991331;28;20029;-55
2023/09/14 03:36:27;;;;;;;12.38;8.40;;;19.20;65.80;;;;;;4998744;28;20026;-52
2023/09/14 03:38:53;;;;;;;17.63;8.93;;;19.20;65.80;;;;;;5010641;28;20083;-54
2023/09/14 03:41:18;;;;;;;11.32;7.95;;;19.20;66.60;;;;;;5003805;28;20034;-55
2023/09/14 03:43:44;;;;;;;12.93;7.97;;;19.20;66.10;;;;;;4992302;28;20510;-56
2023/09/14 03:46:14;;;;;;;14.10;8.30;;;19.20;66.10;;;;;;4991906;28;20054;-56
2023/09/14 03:48:39;;;;;;;11.23;7.80;;;19.20;66.30;;;;;;4991796;28;20061;-56
2023/09/14 03:51:05;;;;;;;10.00;7.72;;;19.20;66.40;;;;;;4990410;28;20410;-56
2023/09/14 03:53:31;;;;;;;12.90;7.90;;;19.20;66.50;;;;;;4990970;28;20041;-55
2023/09/14 03:56:01;;;;;;;9.30;7.47;;;19.20;66.60;;;;;;5003951;28;20042;-52
2023/09/14 03:58:27;;;;;;;14.55;8.30;;;19.20;66.70;;;;;;4990764;28;20449;-54
2023/09/14 04:00:54;;;;;;;11.13;7.40;;;19.20;66.70;;;;;;4994547;28;20109;-56
2023/09/14 04:03:19;;;;;;;12.00;7.32;;;19.30;66.70;;;;;;5011353;28;20030;-56
2023/09/14 04:05:45;;;;;;;12.48;7.97;;;19.30;66.60;;;;;;5012114;28;20022;-56
2023/09/14 04:08:12;;;;;;;10.77;7.28;;;19.30;66.60;;;;;;5011947;28;20076;-55
2023/09/14 04:10:38;;;;;;;9.18;7.68;;;19.30;66.60;;;;;;5011343;28;20022;-55
2023/09/14 04:13:33;;;;;;;13.48;7.85;;;19.30;66.60;;;;;;5010659;28;20026;-55
2023/09/14 04:16:00;;;;;;;11.95;7.82;;;19.30;66.60;;;;;;5011741;28;20073;-56
2023/09/14 04:18:26;;;;;;;12.43;8.10;;;19.30;66.70;;;;;;5012171;28;20037;-57
2023/09/14 04:20:52;;;;;;;13.40;9.00;;;19.30;66.60;;;;;;5010467;28;20018;-57
2023/09/14 04:23:18;;;;;;;13.05;9.32;;;19.30;66.70;;;;;;4992286;28;20033;-57
2023/09/14 04:25:45;;;;;;;13.70;8.82;;;19.30;66.80;;;;;;4992402;28;20356;-57
2023/09/14 04:28:15;;;;;;;13.00;9.82;;;19.30;66.80;;;;;;5011605;28;20112;-55
2023/09/14 04:30:46;;;;;;;12.15;8.88;;;19.30;66.90;;;;;;5011990;28;20501;-57
2023/09/14 04:33:13;;;;;;;15.82;10.70;;;19.30;66.90;;;;;;4992462;28;20026;-56
2023/09/14 04:35:39;;;;;;;13.35;9.52;;;19.30;67.00;;;;;;4992175;28;20026;-57
2023/09/14 04:38:08;;;;;;;16.60;11.02;;;19.30;67.10;;;;;;4992092;28;20081;-58
2023/09/14 04:40:43;;;;;;;14.55;10.25;;;19.40;67.20;;;;;;4991709;28;20022;-57
2023/09/14 04:43:09;;;;;;;17.08;9.13;;;19.40;67.20;;;;;;4992232;28;20478;-57
2023/09/14 04:45:35;;;;;;;16.23;9.70;;;19.50;67.30;;;;;;4992018;28;20442;-58
2023/09/14 04:48:01;;;;;;;12.40;8.63;;;19.50;67.20;;;;;;4992156;28;20065;-57
2023/09/14 04:50:27;;;;;;;13.23;9.02;;;19.50;67.10;;;;;;4991531;28;20026;-57
2023/09/14 04:52:53;;;;;;;13.35;8.73;;;19.60;67.20;;;;;;5008537;28;20030;-56
2023/09/14 04:55:18;;;;;;;12.23;8.10;;;19.70;67.10;;;;;;5013235;28;20049;-54
2023/09/14 04:57:44;;;;;;;15.82;8.75;;;19.70;67.10;;;;;;4999858;28;20069;-57
2023/09/14 05:00:10;;;;;;;17.40;8.85;;;19.80;67.00;;;;;;4994278;28;20023;-57
2023/09/14 05:02:37;;;;;;;24.23;8.10;;;19.80;67.00;;;;;;4993627;28;20414;-55
2023/09/14 05:05:03;;;;;;;17.13;9.00;;;19.90;67.10;;;;;;4994786;28;20386;-58
2023/09/14 05:07:29;;;;;;;10.40;7.90;;;19.90;67.00;;;;;;5006904;28;20497;-57
2023/09/14 05:09:55;;;;;;;12.82;7.90;;;20.00;67.00;;;;;;5014471;28;20473;-57
2023/09/14 05:12:21;;;;;;;13.00;7.55;;;20.00;67.00;;;;;;5014095;28;20518;-55
2023/09/14 05:14:46;;;;;;;10.57;7.53;;;20.10;66.80;;;;;;5013536;28;20045;-58
2023/09/14 05:17:12;;;;;;;12.98;7.35;;;20.20;66.80;;;;;;5013035;28;20074;-57
2023/09/14 05:19:42;;;;;;;13.55;7.88;;;20.20;66.70;;;;;;5014049;28;20379;-56
2023/09/14 05:22:08;;;;;;;15.05;8.05;;;20.20;66.70;;;;;;5014346;28;20033;-58
2023/09/14 05:24:34;;;;;;;9.63;8.07;;;20.20;66.70;;;;;;5014442;28;20545;-56
2023/09/14 05:27:00;;;;;;;14.70;8.43;;;20.20;66.80;;;;;;5014430;28;20025;-55
2023/09/14 05:29:26;;;;;;;14.63;8.38;;;20.20;66.70;;;;;;4997456;28;20037;-56
2023/09/14 05:31:52;;;;;;;12.02;8.10;;;20.20;66.70;;;;;;5009562;28;20045;-58
2023/09/14 05:34:18;;;;;;;13.57;8.00;;;20.30;66.60;;;;;;4995160;28;20030;-57
2023/09/14 05:36:44;;;;;;;17.40;9.02;;;20.30;66.60;;;;;;4999066;28;20037;-57
2023/09/14 05:39:09;;;;;;;10.02;7.28;;;20.30;66.70;;;;;;5013570;28;20482;-57
2023/09/14 05:41:35;;;;;;;17.38;8.88;;;20.30;67.00;;;;;;5014309;28;20029;-57
2023/09/14 05:44:05;;;;;;;12.18;7.68;;;20.40;67.20;;;;;;5014289;28;20489;-57
2023/09/14 05:46:30;;;;;;;10.02;7.65;;;20.40;67.00;;;;;;5013851;28;20116;-57
2023/09/14 05:48:56;;;;;;;13.30;7.95;;;20.60;67.10;;;;;;5013664;28;20187;-57
2023/09/14 05:51:23;;;;;;;11.95;7.80;;;20.70;67.00;;;;;;5013667;28;20418;-54
2023/09/14 05:53:49;;;;;;;14.52;8.95;;;20.80;67.00;;;;;;4994478;28;20037;-56
2023/09/14 05:56:14;;;;;;;12.18;8.93;;;20.90;66.60;;;;;;5012600;28;20061;-56
2023/09/14 05:58:40;;;;;;;13.82;8.88;;;21.00;66.60;;;;;;4996283;28;20552;-56
2023/09/14 06:01:06;;;;;;;17.40;9.95;;;21.10;66.60;;;;;;5013927;28;20030;-58
2023/09/14 06:03:32;;;;;;;12.30;8.95;;;21.10;66.40;;;;;;4996018;28;20057;-57
2023/09/14 06:05:57;;;;;;;14.55;9.38;;;21.20;66.30;;;;;;4992824;28;20031;-56
2023/09/14 06:08:23;;;;;;;13.80;9.27;;;21.20;66.20;;;;;;4993331;28;20471;-58
2023/09/14 06:10:49;;;;;;;11.95;9.02;;;21.20;66.30;;;;;;4993385;28;20089;-58
2023/09/14 06:13:16;;;;;;;15.15;10.63;;;21.20;66.20;;;;;;4993214;28;20050;-58
2023/09/14 06:15:42;;;;;;;15.73;10.20;;;21.20;66.20;;;;;;4992201;28;20018;-58
2023/09/14 06:18:07;;;;;;;15.45;10.68;;;21.30;66.30;;;;;;5006954;28;20492;-58
2023/09/14 06:20:33;;;;;;;18.65;11.48;;;21.30;67.00;;;;;;5013464;28;20026;-57
2023/09/14 06:22:59;;;;;;;18.52;12.38;;;21.30;66.30;;;;;;4995850;28;20437;-57
2023/09/14 06:25:25;;;;;;;19.98;12.38;;;21.40;66.50;;;;;;5012840;28;20525;-58
2023/09/14 06:27:50;;;;;;;18.98;12.27;;;21.40;66.50;;;;;;5011839;28;20029;-57
2023/09/14 06:30:16;;;;;;;23.77;13.45;;;21.40;66.40;;;;;;5012908;28;20030;-58
2023/09/14 06:32:42;;;;;;;22.38;12.45;;;21.50;66.60;;;;;;5013163;28;20501;-58
2023/09/14 06:35:08;;;;;;;21.80;13.65;;;21.50;66.70;;;;;;5013214;28;20517;-58
2023/09/14 06:37:33;;;;;;;18.08;12.68;;;21.60;66.70;;;;;;5012910;28;20109;-56
2023/09/14 06:39:59;;;;;;;20.65;13.20;;;21.70;66.80;;;;;;5013244;28;20097;-58
2023/09/14 06:42:25;;;;;;;20.25;12.32;;;21.70;66.90;;;;;;5012918;28;20073;-55
2023/09/14 06:44:50;;;;;;;14.38;11.00;;;21.80;67.00;;;;;;5013980;28;20029;-58
2023/09/14 06:47:17;;;;;;;17.63;10.00;;;21.90;67.00;;;;;;5012979;28;20044;-58
2023/09/14 06:49:43;;;;;;;17.38;10.50;;;21.90;66.90;;;;;;5012812;28;20030;-56
2023/09/14 06:52:08;;;;;;;15.10;10.25;;;22.00;66.90;;;;;;5009244;28;20076;-56
2023/09/14 06:54:34;;;;;;;12.93;10.10;;;22.10;66.80;;;;;;4995760;28;20504;-56
2023/09/14 06:56:59;;;;;;;12.50;9.35;;;22.20;66.70;;;;;;5011401;28;20022;-58
2023/09/14 06:59:25;;;;;;;11.30;8.57;;;22.30;66.70;;;;;;5010832;28;20034;-57
2023/09/14 07:01:51;;;;;;;13.57;9.40;;;22.40;66.40;;;;;;5011543;28;20037;-56
2023/09/14 07:04:17;;;;;;;19.55;9.27;;;22.50;66.10;;;;;;5010747;28;20510;-58
2023/09/14 07:06:42;;;;;;;11.15;8.32;;;22.60;66.10;;;;;;4997503;28;20173;-57
2023/09/14 07:09:08;;;;;;;11.68;7.88;;;22.70;66.00;;;;;;4996349;28;20034;-57
2023/09/14 07:11:34;;;;;;;12.15;8.57;;;22.70;65.80;;;;;;5003749;28;20491;-58
2023/09/14 07:14:00;;;;;;;14.25;9.27;;;22.80;66.30;;;;;;5001798;28;20034;-58
2023/09/14 07:16:26;;;;;;;10.80;8.77;;;22.80;65.50;;;;;;5005058;28;20424;-57
2023/09/14 07:18:52;;;;;;;13.85;8.48;;;22.90;65.60;;;;;;5004461;28;20029;-57
2023/09/14 07:21:17;;;;;;;11.38;8.07;;;22.90;65.60;;;;;;4999914;28;20035;-56
2023/09/14 07:23:43;;;;;;;12.30;9.30;;;23.00;65.40;;;;;;5009313;28;20025;-58
2023/09/14 07:26:09;;;;;;;10.90;8.60;;;23.00;65.30;;;;;;5005161;28;20053;-55
2023/09/14 07:28:35;;;;;;;12.30;9.55;;;23.10;65.20;;;;;;5001747;28;20030;-58
2023/09/14 07:31:05;;;;;;;15.75;9.27;;;23.10;65.20;;;;;;5006916;28;20026;-58
2023/09/14 07:33:31;;;;;;;15.45;9.43;;;23.10;65.10;;;;;;5003089;28;20477;-58
2023/09/14 07:35:57;;;;;;;16.75;10.38;;;23.10;65.20;;;;;;5003315;28;20022;-57
2023/09/14 07:38:23;;;;;;;15.82;10.38;;;23.20;65.40;;;;;;5000871;28;20057;-58
2023/09/14 07:40:48;;;;;;;18.55;10.55;;;23.20;65.50;;;;;;4997900;28;20471;-57
2023/09/14 07:43:14;;;;;;;21.77;13.52;;;23.20;65.40;;;;;;4999826;28;20382;-58
2023/09/14 07:45:40;;;;;;;21.27;13.82;;;23.30;65.40;;;;;;5008961;28;20026;-56
2023/09/14 07:48:07;;;;;;;44.30;24.13;;;23.30;65.50;;;;;;5009867;28;20032;-58
2023/09/14 07:50:40;;;;;;;65.68;35.75;;;23.30;65.40;;;;;;5016202;28;20022;-57
2023/09/14 07:53:07;;;;;;;69.38;32.35;;;23.40;65.30;;;;;;4999156;28;20113;-58
2023/09/14 07:55:33;;;;;;;51.05;27.52;;;23.40;65.20;;;;;;4985940;28;20415;-56
2023/09/14 07:57:58;;;;;;;44.30;26.20;;;23.50;65.50;;;;;;4982626;28;20027;-56
2023/09/14 08:00:25;;;;;;;38.42;21.55;;;23.50;65.60;;;;;;4983935;28;20093;-56
2023/09/14 08:02:51;;;;;;;27.55;17.25;;;23.50;65.60;;;;;;4979081;28;20060;-57
2023/09/14 08:05:17;;;;;;;19.38;12.90;;;23.50;66.00;;;;;;4986663;28;20501;-56
2023/09/14 08:07:42;;;;;;;14.70;10.40;;;23.60;66.70;;;;;;4983286;28;20034;-54
2023/09/14 08:10:08;;;;;;;13.55;10.68;;;23.50;66.50;;;;;;4983686;28;20463;-56
2023/09/14 08:12:36;;;;;;;11.80;9.63;;;23.50;66.80;;;;;;4982165;28;20031;-57
2023/09/14 08:15:05;;;;;;;10.80;9.43;;;23.50;67.10;;;;;;4977859;28;20027;-55
2023/09/14 08:17:31;;;;;;;10.90;8.75;;;23.60;67.40;;;;;;4981411;28;20022;-57
2023/09/14 08:19:57;;;;;;;9.98;8.05;;;23.60;67.60;;;;;;4981953;28;20030;-55
2023/09/14 08:22:23;;;;;;;11.82;6.55;;;23.50;67.60;;;;;;4982386;28;20033;-55
2023/09/14 08:24:49;;;;;;;11.65;7.00;;;23.50;67.90;;;;;;4985934;28;20035;-57
2023/09/14 08:27:15;;;;;;;8.70;6.47;;;23.50;67.90;;;;;;4983380;28;20033;-57
2023/09/14 08:29:43;;;;;;;8.70;6.32;;;23.50;67.90;;;;;;4978353;28;20105;-56
2023/09/14 08:32:10;;;;;;;8.57;6.53;;;23.40;68.10;;;;;;4986043;28;21585;-57
2023/09/14 08:34:36;;;;;;;8.45;6.57;;;23.40;68.60;;;;;;4989860;28;20498;-55
2023/09/14 08:37:02;;;;;;;9.90;6.57;;;23.40;69.00;;;;;;4986617;28;20109;-58
2023/09/14 08:39:28;;;;;;;8.35;6.72;;;23.40;69.20;;;;;;4990207;28;20042;-57
2023/09/14 08:41:53;;;;;;;9.43;7.00;;;23.40;69.60;;;;;;4995054;28;20125;-55
2023/09/14 08:44:22;;;;;;;13.13;7.03;;;23.40;70.10;;;;;;4995644;28;20034;-57
2023/09/14 08:46:48;;;;;;;9.00;6.72;;;23.40;70.00;;;;;;4990721;28;20129;-56
2023/09/14 08:49:15;;;;;;;9.70;7.63;;;23.40;70.00;;;;;;4982212;28;20035;-55
2023/09/14 08:51:43;;;;;;;11.23;8.38;;;23.40;69.90;;;;;;4990192;28;20030;-57
2023/09/14 08:54:09;;;;;;;11.52;9.38;;;23.30;69.90;;;;;;4997175;28;20033;-57
2023/09/14 08:56:36;;;;;;;11.15;9.23;;;23.30;70.10;;;;;;5002340;28;20397;-56
2023/09/14 08:59:03;;;;;;;10.23;8.55;;;23.30;70.40;;;;;;5013961;28;20033;-57
2023/09/14 09:01:31;;;;;;;12.90;9.60;;;23.30;70.60;;;;;;5008476;28;20474;-53
2023/09/14 09:03:56;;;;;;;10.63;9.35;;;23.30;71.00;;;;;;5005075;28;20533;-57
2023/09/14 09:06:23;;;;;;;13.18;9.60;;;23.30;70.90;;;;;;5002672;28;20069;-57
2023/09/14 09:08:49;;;;;;;11.98;9.18;;;23.30;71.00;;;;;;5003410;28;20037;-56
2023/09/14 09:11:14;;;;;;;11.95;9.73;;;23.30;71.20;;;;;;5006750;28;20037;-54
2023/09/14 09:13:45;;;;;;;10.88;9.10;;;23.30;70.90;;;;;;5006600;28;20053;-57
2023/09/14 09:16:12;;;;;;;11.90;9.18;;;23.30;71.00;;;;;;5010078;28;20038;-56
2023/09/14 09:19:03;;;;;;;10.00;8.40;;;23.30;71.00;;;;;;5010036;28;20497;-56
2023/09/14 09:21:31;;;;;;;9.63;8.52;;;23.40;70.30;;;;;;5009810;28;20108;-57
2023/09/14 09:23:57;;;;;;;11.27;8.45;;;23.50;70.40;;;;;;5006441;28;20062;-56
2023/09/14 09:26:24;;;;;;;9.63;7.00;;;23.60;70.10;;;;;;5012947;28;20029;-55
2023/09/14 09:28:50;;;;;;;9.57;7.15;;;23.70;69.50;;;;;;5008890;28;20026;-55
2023/09/14 09:31:16;;;;;;;10.85;7.22;;;23.80;69.10;;;;;;5012704;28;20485;-56
2023/09/14 09:33:47;;;;;;;10.77;7.43;;;24.00;68.80;;;;;;5000776;28;20108;-55
2023/09/14 09:36:15;;;;;;;11.82;8.45;;;24.10;68.60;;;;;;5005703;28;20108;-54
2023/09/14 09:38:40;;;;;;;12.00;7.43;;;24.20;68.10;;;;;;5004284;28;20025;-54
2023/09/14 09:41:10;;;;;;;12.25;8.02;;;24.30;67.90;;;;;;5009803;28;20030;-55
2023/09/14 09:43:37;;;;;;;11.77;7.25;;;24.40;67.20;;;;;;5007553;28;20473;-56
2023/09/14 09:46:03;;;;;;;10.00;7.10;;;24.50;67.00;;;;;;5005848;28;20018;-56
2023/09/14 09:48:29;;;;;;;9.68;6.35;;;24.50;66.70;;;;;;5006592;28;20030;-55
2023/09/14 09:50:55;;;;;;;10.15;6.47;;;24.60;66.30;;;;;;5009347;28;20057;-56
2023/09/14 09:53:21;;;;;;;8.82;5.97;;;24.60;66.10;;;;;;5009375;28;20089;-57
2023/09/14 09:55:47;;;;;;;11.57;6.75;;;24.60;66.00;;;;;;5005818;28;20044;-56
2023/09/14 09:58:16;;;;;;;9.73;6.55;;;24.60;66.10;;;;;;5010144;28;20052;-56
2023/09/14 10:00:43;;;;;;;9.52;6.57;;;24.60;66.10;;;;;;5007330;28;20037;-55
2023/09/14 10:03:08;;;;;;;8.73;5.85;;;24.60;65.90;;;;;;5006848;28;20026;-57
2023/09/14 10:05:40;;;;;;;10.05;6.68;;;24.60;66.00;;;;;;5006091;28;20513;-57
2023/09/14 10:08:17;;;;;;;8.93;6.43;;;24.60;65.90;;;;;;5004468;28;20049;-54
2023/09/14 10:10:55;;;;;;;9.05;6.57;;;24.60;65.80;;;;;;5011185;28;20062;-55
2023/09/14 10:13:25;;;;;;;8.40;6.45;;;24.60;65.60;;;;;;5010250;28;20709;-57
2023/09/14 10:16:01;;;;;;;11.50;6.60;;;24.60;65.60;;;;;;5003484;28;20026;-57
2023/09/14 10:18:28;;;;;;;8.20;6.25;;;24.60;65.50;;;;;;5010119;28;20275;-56
2023/09/14 10:20:56;;;;;;;15.80;8.23;;;24.60;65.50;;;;;;5003361;28;20034;-56
2023/09/14 10:23:22;;;;;;;12.02;8.80;;;24.60;65.40;;;;;;5007271;28;20025;-57
2023/09/14 10:25:50;;;;;;;18.58;11.20;;;24.60;65.40;;;;;;5007305;28;20030;-56
2023/09/14 10:28:16;;;;;;;13.73;9.50;;;24.50;65.60;;;;;;5007521;28;20392;-58
2023/09/14 10:30:44;;;;;;;15.55;9.50;;;24.50;65.70;;;;;;5010743;28;20072;-58
2023/09/14 10:33:11;;;;;;;12.00;8.00;;;24.50;65.80;;;;;;5000494;28;20363;-58
2023/09/14 10:35:40;;;;;;;13.13;9.43;;;24.50;65.90;;;;;;5010130;28;20124;-56
2023/09/14 10:38:09;;;;;;;9.38;6.80;;;24.50;66.10;;;;;;4999827;28;20030;-56
2023/09/14 10:40:38;;;;;;;9.07;5.93;;;24.50;66.00;;;;;;5008588;28;20083;-56
2023/09/14 10:43:05;;;;;;;8.13;6.28;;;24.50;66.00;;;;;;5009524;28;20036;-56
2023/09/14 10:45:35;;;;;;;7.63;5.72;;;24.50;65.90;;;;;;5009695;28;20411;-57
2023/09/14 10:48:04;;;;;;;7.90;5.97;;;24.50;66.00;;;;;;5011692;28;20025;-57
2023/09/14 10:50:31;;;;;;;7.28;6.05;;;24.50;66.20;;;;;;5004805;28;20045;-57
2023/09/14 10:52:57;;;;;;;10.55;7.47;;;24.50;66.50;;;;;;4999623;28;20117;-56
2023/09/14 10:55:26;;;;;;;14.07;8.98;;;24.50;66.50;;;;;;5006726;28;20081;-56
2023/09/14 10:57:51;;;;;;;11.60;7.40;;;24.60;67.30;;;;;;5004667;28;20022;-57
2023/09/14 11:00:57;;;;;;;7.65;5.95;;;24.60;66.70;;;;;;5011280;28;20026;-56
2023/09/14 11:03:23;;;;;;;8.00;5.85;;;24.60;66.70;;;;;;4975184;28;20033;-57
2023/09/14 11:05:52;;;;;;;10.57;5.65;;;24.60;66.90;;;;;;5012682;28;20031;-56
2023/09/14 11:08:19;;;;;;;8.23;5.88;;;24.60;66.80;;;;;;5011187;28;20037;-57
2023/09/14 11:10:55;;;;;;;8.88;6.68;;;24.60;66.60;;;;;;5019540;28;20025;-56
2023/09/14 11:13:21;;;;;;;7.28;5.85;;;24.70;66.50;;;;;;5010749;28;20026;-58
2023/09/14 11:15:53;;;;;;;10.55;5.97;;;24.70;66.60;;;;;;5009312;28;20026;-58
2023/09/14 11:18:20;;;;;;;8.07;6.30;;;24.70;66.60;;;;;;5011222;28;20038;-55
2023/09/14 11:20:46;;;;;;;9.60;6.25;;;24.70;66.40;;;;;;5008732;28;20394;-57
2023/09/14 11:23:12;;;;;;;6.22;5.40;;;24.80;66.40;;;;;;5014666;28;20067;-57
2023/09/14 11:25:42;;;;;;;10.05;5.85;;;24.80;66.40;;;;;;5011251;28;20501;-57
2023/09/14 11:28:18;;;;;;;9.25;5.75;;;24.80;66.20;;;;;;5011162;28;20101;-55
2023/09/14 11:30:46;;;;;;;7.45;5.72;;;24.90;66.00;;;;;;5013884;28;20034;-55
2023/09/14 11:33:13;;;;;;;8.82;5.70;;;24.90;65.50;;;;;;5004148;28;20392;-57
2023/09/14 11:35:40;;;;;;;9.27;5.78;;;24.90;65.20;;;;;;5008593;28;20478;-57
2023/09/14 11:38:19;;;;;;;7.00;5.68;;;25.00;65.20;;;;;;5010614;28;20485;-55
2023/09/14 11:40:46;;;;;;;7.82;5.50;;;25.00;64.70;;;;;;5004211;28;20018;-54
2023/09/14 11:45:51;;;;;;;7.05;5.72;;;25.10;64.30;;;;;;5007267;28;20112;-56
2023/09/14 11:48:18;;;;;;;7.32;6.13;;;25.10;64.30;;;;;;5009839;28;20033;-57
2023/09/14 11:50:47;;;;;;;6.88;5.75;;;25.10;64.40;;;;;;5007261;28;20080;-56
2023/09/14 11:53:17;;;;;;;8.80;5.22;;;25.10;64.60;;;;;;5011391;28;20493;-55
2023/09/14 11:55:45;;;;;;;7.30;6.03;;;25.20;64.30;;;;;;4998463;28;20049;-55
2023/09/14 11:58:14;;;;;;;9.77;6.10;;;25.20;64.10;;;;;;5004955;28;20061;-57
2023/09/14 12:00:44;;;;;;;7.85;5.70;;;25.20;64.00;;;;;;4995211;28;20093;-55
2023/09/14 12:03:10;;;;;;;7.78;5.40;;;25.20;64.10;;;;;;4988056;28;20058;-55
2023/09/14 12:05:36;;;;;;;7.10;5.38;;;25.20;64.20;;;;;;4989752;28;20062;-57
2023/09/14 12:08:13;;;;;;;9.15;7.07;;;25.30;64.30;;;;;;4991712;28;20057;-57
2023/09/14 12:10:39;;;;;;;7.35;6.18;;;25.30;64.20;;;;;;4984103;28;20030;-58
2023/09/14 12:13:15;;;;;;;9.82;6.82;;;25.30;64.20;;;;;;4983872;28;20034;-57
2023/09/14 12:15:45;;;;;;;6.25;5.63;;;25.30;64.10;;;;;;4984094;28;20029;-54
2023/09/14 12:18:16;;;;;;;6.80;5.70;;;25.30;64.20;;;;;;4985209;28;20498;-57
2023/09/14 12:20:45;;;;;;;;;;;25.20;64.20;;;;;;4990547;28;20210;-56
2023/09/14 12:23:14;;;;;;;10.02;5.75;;;25.20;64.30;;;;;;4985098;28;19918;-60
2023/09/14 12:25:40;;;;;;;8.10;5.75;;;25.10;64.60;;;;;;4983316;28;20026;-60
2023/09/14 12:28:09;;;;;;;21.88;9.07;;;25.10;64.60;;;;;;4988897;28;20045;-60
2023/09/14 12:30:36;;;;;;;29.83;10.85;;;25.10;66.90;;;;;;4992807;28;20490;-62
2023/09/14 12:33:03;;;;;;;20.85;12.15;;;25.10;68.70;;;;;;4983729;28;20117;-60
2023/09/14 12:35:30;;;;;;;19.42;12.57;;;25.00;68.80;;;;;;4981309;28;20406;-58
2023/09/14 12:38:03;;;;;;;19.58;13.00;;;25.00;69.50;;;;;;4989210;28;20087;-58
2023/09/14 12:40:36;;;;;;;26.88;16.92;;;24.90;70.50;;;;;;4988312;28;20030;-61